Time;durP1;ratioP1;P1;durP2;ratioP2;P2;SDS_P1;SDS_P2;PMS_P1;PMS_P2;Temp;Humidity;BMP_temperature;BMP_pressure;BME280_temperature;BME280_humidity;BME280_pressure;Samples;Min_cycle;Max_cycle;Signal;HPM_P1;HPM_P2
2021/03/03 00:01:25;;;;;;;86.75;29.35;;;1.90;94.40;;;;;;4999496;28;20053;-69
2021/03/03 00:03:50;;;;;;;102.55;30.75;;;1.90;94.30;;;;;;4999851;28;20038;-68
2021/03/03 00:06:16;;;;;;;104.05;28.60;;;2.00;94.30;;;;;;4997201;28;20061;-68
2021/03/03 00:08:41;;;;;;;95.25;27.35;;;2.10;94.40;;;;;;5001483;28;20042;-68
2021/03/03 00:11:07;;;;;;;102.43;28.50;;;2.00;94.20;;;;;;5002821;28;20061;-68
2021/03/03 00:13:33;;;;;;;75.90;27.70;;;2.00;94.00;;;;;;5003155;28;20498;-69
2021/03/03 00:15:58;;;;;;;76.00;26.95;;;1.90;94.00;;;;;;4999421;28;20022;-71
2021/03/03 00:18:24;;;;;;;77.28;27.85;;;1.80;93.90;;;;;;5000975;28;20056;-69
2021/03/03 00:20:49;;;;;;;86.35;28.80;;;1.80;93.70;;;;;;4999559;28;20410;-69
2021/03/03 00:23:15;;;;;;;91.05;29.17;;;1.70;93.80;;;;;;5001635;28;20064;-68
2021/03/03 00:25:41;;;;;;;92.60;28.30;;;1.70;93.80;;;;;;4999853;28;20454;-68
2021/03/03 00:28:06;;;;;;;98.95;29.92;;;1.70;94.10;;;;;;4998589;28;20042;-68
2021/03/03 00:30:32;;;;;;;114.88;32.55;;;1.90;94.40;;;;;;4999493;28;20547;-68
2021/03/03 00:32:57;;;;;;;101.63;30.05;;;1.90;94.40;;;;;;5002454;28;20030;-69
2021/03/03 00:35:23;;;;;;;98.53;29.15;;;1.80;94.30;;;;;;5012684;28;20038;-69
2021/03/03 00:37:49;;;;;;;98.35;31.15;;;1.80;94.40;;;;;;4995590;28;20137;-68
2021/03/03 00:40:15;;;;;;;108.82;31.58;;;1.80;94.40;;;;;;4996793;28;20491;-68
2021/03/03 00:42:40;;;;;;;126.95;33.88;;;1.80;94.50;;;;;;5005693;28;20029;-69
2021/03/03 00:45:07;;;;;;;107.43;31.35;;;2.00;94.70;;;;;;5004674;28;20033;-68
2021/03/03 00:47:33;;;;;;;108.88;32.28;;;1.90;94.60;;;;;;5002631;28;20122;-68
2021/03/03 00:49:59;;;;;;;123.50;32.92;;;2.00;94.60;;;;;;5002693;28;20025;-67
2021/03/03 00:52:24;;;;;;;109.20;33.38;;;2.00;94.60;;;;;;5003917;28;20022;-68
2021/03/03 00:54:50;;;;;;;125.32;35.25;;;2.00;94.50;;;;;;5001640;28;20034;-70
2021/03/03 00:57:16;;;;;;;122.60;33.33;;;2.10;94.60;;;;;;5004769;28;20514;-68
2021/03/03 00:59:41;;;;;;;117.10;33.63;;;2.00;94.30;;;;;;5003962;28;20137;-68
2021/03/03 01:02:07;;;;;;;97.90;31.63;;;2.00;94.50;;;;;;5003996;28;20648;-68
2021/03/03 01:04:33;;;;;;;140.07;36.53;;;2.10;94.50;;;;;;5004429;28;20513;-71
2021/03/03 01:06:59;;;;;;;115.35;35.97;;;2.00;94.60;;;;;;5006574;28;20495;-68
2021/03/03 01:09:26;;;;;;;137.18;36.30;;;2.00;94.50;;;;;;5002782;28;20022;-68
2021/03/03 01:11:56;;;;;;;128.65;36.53;;;2.10;94.60;;;;;;5005756;28;20137;-68
2021/03/03 01:14:21;;;;;;;147.63;39.97;;;2.10;94.70;;;;;;4987760;28;20022;-70
2021/03/03 01:16:52;;;;;;;143.00;38.53;;;2.10;94.80;;;;;;4997258;28;20034;-71
2021/03/03 01:19:18;;;;;;;139.52;39.22;;;2.10;94.80;;;;;;5003919;28;20036;-68
2021/03/03 01:21:43;;;;;;;139.05;39.08;;;2.10;94.60;;;;;;5004566;28;20378;-70
2021/03/03 01:24:10;;;;;;;144.77;37.15;;;2.10;94.70;;;;;;4999998;28;20469;-67
2021/03/03 01:26:36;;;;;;;148.15;39.30;;;2.10;94.70;;;;;;4998172;28;20027;-71
2021/03/03 01:29:02;;;;;;;161.07;41.92;;;2.00;94.80;;;;;;5006263;28;20104;-68
2021/03/03 01:31:27;;;;;;;162.45;39.83;;;2.10;95.00;;;;;;5005060;28;20080;-68
2021/03/03 01:33:53;;;;;;;144.75;39.35;;;2.10;95.00;;;;;;5004743;28;20431;-68
2021/03/03 01:36:18;;;;;;;161.15;40.90;;;2.10;95.00;;;;;;5001810;28;20022;-71
2021/03/03 01:38:44;;;;;;;152.40;39.00;;;2.10;95.00;;;;;;5001042;28;20569;-68
2021/03/03 01:41:09;;;;;;;145.90;37.90;;;2.10;95.00;;;;;;5004770;28;20037;-68
2021/03/03 01:43:35;;;;;;;157.18;40.55;;;2.10;95.00;;;;;;5004198;28;20073;-70
2021/03/03 01:46:00;;;;;;;154.10;38.63;;;2.10;95.00;;;;;;5000773;28;20038;-68
2021/03/03 01:48:26;;;;;;;129.48;36.95;;;2.00;94.90;;;;;;4999319;28;20390;-69
2021/03/03 01:50:53;;;;;;;114.47;34.40;;;1.90;94.70;;;;;;5000315;28;20034;-69
2021/03/03 01:53:19;;;;;;;109.18;34.15;;;1.80;94.60;;;;;;5001922;28;20018;-68
2021/03/03 01:55:45;;;;;;;113.18;33.80;;;1.80;94.80;;;;;;5002919;28;20515;-69
2021/03/03 01:58:10;;;;;;;99.80;31.67;;;1.60;94.60;;;;;;5001919;28;20018;-68
2021/03/03 02:00:36;;;;;;;123.50;34.45;;;1.60;94.70;;;;;;4995857;28;20434;-67
2021/03/03 02:03:02;;;;;;;115.38;33.80;;;1.60;94.70;;;;;;5003874;28;20156;-67
2021/03/03 02:05:29;;;;;;;142.75;37.03;;;1.50;94.80;;;;;;4996256;28;20109;-67
2021/03/03 02:08:09;;;;;;;148.60;37.83;;;1.60;95.00;;;;;;5009085;28;20088;-68
2021/03/03 02:10:54;;;;;;;140.27;38.35;;;1.50;95.00;;;;;;4990730;28;20038;-67
2021/03/03 02:13:22;;;;;;;109.68;34.05;;;1.50;95.10;;;;;;5008721;28;20038;-67
2021/03/03 02:15:50;;;;;;;121.85;35.00;;;1.30;95.00;;;;;;4994508;28;20041;-67
2021/03/03 02:18:17;;;;;;;133.38;37.55;;;1.30;95.10;;;;;;5003266;28;20062;-68
2021/03/03 02:20:52;;;;;;;136.23;36.60;;;1.40;95.30;;;;;;4999368;28;20034;-68
2021/03/03 02:23:49;;;;;;;132.25;36.28;;;1.30;95.20;;;;;;5007663;28;20033;-67
2021/03/03 02:26:17;;;;;;;137.63;37.05;;;1.20;95.30;;;;;;4989492;28;20498;-66
2021/03/03 02:28:44;;;;;;;157.05;38.40;;;1.30;95.40;;;;;;5001444;28;20264;-68
2021/03/03 02:31:17;;;;;;;141.95;38.92;;;1.30;95.60;;;;;;5002522;28;20057;-68
2021/03/03 02:33:44;;;;;;;169.45;39.47;;;1.30;95.60;;;;;;5004336;28;20041;-69
2021/03/03 02:36:11;;;;;;;152.02;37.20;;;1.20;95.50;;;;;;5002534;28;20018;-68
2021/03/03 02:38:40;;;;;;;133.23;35.50;;;1.10;95.50;;;;;;4998905;28;20022;-70
2021/03/03 02:41:08;;;;;;;155.25;39.33;;;1.10;95.50;;;;;;5004209;28;20565;-69
2021/03/03 02:43:35;;;;;;;113.35;35.28;;;1.00;95.50;;;;;;5003465;28;20053;-67
2021/03/03 02:46:01;;;;;;;149.20;38.50;;;0.90;95.40;;;;;;5001838;28;20423;-68
2021/03/03 02:48:26;;;;;;;166.57;38.85;;;0.80;95.40;;;;;;5006444;28;20034;-67
2021/03/03 02:50:52;;;;;;;149.20;38.88;;;1.00;95.70;;;;;;4999192;28;20491;-71
2021/03/03 02:53:18;;;;;;;180.63;41.67;;;0.90;95.60;;;;;;5006441;28;20026;-67
2021/03/03 02:55:43;;;;;;;186.05;42.55;;;1.00;95.80;;;;;;5001452;28;20046;-69
2021/03/03 02:58:09;;;;;;;162.05;41.45;;;1.00;95.80;;;;;;4996443;28;20040;-66
2021/03/03 03:00:38;;;;;;;191.35;42.75;;;0.90;95.80;;;;;;5003981;28;20028;-66
2021/03/03 03:03:16;;;;;;;192.00;44.13;;;0.90;95.80;;;;;;4992804;28;20038;-67
2021/03/03 03:05:45;;;;;;;185.90;45.75;;;0.90;95.90;;;;;;5000247;28;20072;-68
2021/03/03 03:08:13;;;;;;;206.55;45.53;;;0.90;96.00;;;;;;5001373;28;20860;-67
2021/03/03 03:10:40;;;;;;;183.57;42.78;;;0.80;95.90;;;;;;4996604;28;20030;-69
2021/03/03 03:13:09;;;;;;;201.60;45.80;;;0.90;96.10;;;;;;4997152;28;20040;-70
2021/03/03 03:15:36;;;;;;;201.30;45.63;;;0.80;96.00;;;;;;4999477;28;20083;-68
2021/03/03 03:24:58;;;;;;;218.48;46.15;;;0.90;96.30;;;;;;5000531;28;20510;-67
2021/03/03 03:27:26;;;;;;;253.65;51.83;;;0.90;96.40;;;;;;4994846;28;20112;-67
2021/03/03 03:29:52;;;;;;;228.13;51.20;;;1.10;96.60;;;;;;5000474;28;20034;-69
2021/03/03 03:32:19;;;;;;;248.57;51.33;;;1.00;96.50;;;;;;5003708;28;20034;-67
2021/03/03 03:34:45;;;;;;;228.00;48.17;;;0.90;96.40;;;;;;5004135;28;20026;-67
2021/03/03 03:37:13;;;;;;;257.90;51.63;;;0.90;96.50;;;;;;4994551;28;20089;-68
2021/03/03 03:39:39;;;;;;;210.48;47.42;;;1.00;96.50;;;;;;5003064;28;20053;-67
2021/03/03 03:42:07;;;;;;;222.43;50.03;;;0.80;96.40;;;;;;4996278;28;20061;-67
2021/03/03 03:44:33;;;;;;;226.30;49.05;;;0.80;96.30;;;;;;4997735;28;20458;-67
2021/03/03 03:46:59;;;;;;;232.55;47.67;;;0.70;96.40;;;;;;4999616;28;20030;-67
2021/03/03 03:49:25;;;;;;;198.45;46.05;;;0.70;96.40;;;;;;4999126;28;20040;-66
2021/03/03 03:51:50;;;;;;;226.23;47.30;;;0.50;96.30;;;;;;4995052;28;20387;-68
2021/03/03 03:54:17;;;;;;;190.02;43.25;;;0.50;96.30;;;;;;5006688;28;20030;-66
2021/03/03 03:56:43;;;;;;;187.88;44.03;;;0.40;96.20;;;;;;4999443;28;20060;-66
2021/03/03 03:59:09;;;;;;;223.57;49.72;;;0.40;96.30;;;;;;4996612;28;20026;-67
2021/03/03 04:01:35;;;;;;;233.93;48.85;;;0.40;96.40;;;;;;5004670;28;20494;-66
2021/03/03 04:04:00;;;;;;;232.77;48.40;;;0.40;96.40;;;;;;5003072;28;20045;-67
2021/03/03 04:06:26;;;;;;;225.60;47.85;;;0.40;96.40;;;;;;5004319;28;20096;-67
2021/03/03 04:08:51;;;;;;;201.23;45.35;;;0.30;96.30;;;;;;5005417;28;20498;-70
2021/03/03 04:11:17;;;;;;;195.18;44.67;;;0.20;96.30;;;;;;5006179;28;20080;-67
2021/03/03 04:13:43;;;;;;;188.25;44.50;;;0.10;96.30;;;;;;5004067;28;20109;-67
2021/03/03 04:16:08;;;;;;;185.10;44.10;;;0.00;96.20;;;;;;4999779;28;20445;-69
2021/03/03 04:18:34;;;;;;;181.50;43.20;;;0.00;96.30;;;;;;5002988;28;20025;-67
2021/03/03 04:20:59;;;;;;;201.80;45.10;;;0.00;96.20;;;;;;5001045;28;20033;-67
2021/03/03 04:23:25;;;;;;;226.02;46.55;;;0.00;96.30;;;;;;4999670;28;20105;-66
2021/03/03 04:25:50;;;;;;;200.00;44.63;;;0.00;96.20;;;;;;5003671;28;20037;-67
2021/03/03 04:28:16;;;;;;;229.27;46.00;;;0.00;96.20;;;;;;5005042;28;20107;-65
2021/03/03 04:30:42;;;;;;;202.10;42.28;;;-3276.70;96.20;;;;;;4999916;28;20042;-67
2021/03/03 04:33:08;;;;;;;200.38;43.85;;;-3276.70;96.20;;;;;;4997905;28;20030;-67
2021/03/03 04:35:34;;;;;;;222.80;44.67;;;-3276.70;96.20;;;;;;4997711;28;20025;-68
2021/03/03 04:37:59;;;;;;;222.00;44.65;;;-3276.70;96.20;;;;;;5002109;28;20072;-68
2021/03/03 04:40:25;;;;;;;204.75;46.42;;;-3276.70;96.20;;;;;;4997398;28;20117;-67
2021/03/03 04:42:50;;;;;;;253.00;48.25;;;-3276.70;96.20;;;;;;5004096;28;20422;-67
2021/03/03 04:45:16;;;;;;;238.60;49.97;;;-3276.70;96.30;;;;;;4995439;28;20435;-67
2021/03/03 04:47:42;;;;;;;243.68;47.50;;;0.00;96.30;;;;;;5004109;28;20048;-69
2021/03/03 04:50:09;;;;;;;265.50;50.63;;;-3276.70;96.40;;;;;;4985757;28;20030;-66
2021/03/03 04:52:35;;;;;;;248.68;50.40;;;0.00;96.40;;;;;;5001010;28;20053;-67
2021/03/03 04:55:01;;;;;;;260.90;50.33;;;-3276.70;96.40;;;;;;5005363;28;20319;-67
2021/03/03 04:57:27;;;;;;;244.07;51.30;;;0.00;96.40;;;;;;5003085;28;20104;-66
2021/03/03 04:59:53;;;;;;;247.15;49.92;;;0.00;96.50;;;;;;4993197;28;20018;-67
2021/03/03 05:02:18;;;;;;;241.93;51.42;;;-3276.70;96.40;;;;;;4997241;28;20054;-67
2021/03/03 05:04:45;;;;;;;272.92;53.80;;;0.10;96.60;;;;;;5003555;28;20030;-68
2021/03/03 05:07:14;;;;;;;248.38;51.17;;;0.30;96.80;;;;;;4999546;28;20077;-67
2021/03/03 05:09:39;;;;;;;263.38;51.45;;;0.30;96.80;;;;;;4994367;28;20030;-67
2021/03/03 05:12:06;;;;;;;254.63;52.55;;;0.40;96.80;;;;;;4999151;28;20038;-66
2021/03/03 05:14:31;;;;;;;248.80;54.80;;;1.10;97.20;;;;;;4990322;28;20518;-67
2021/03/03 05:16:57;;;;;;;272.48;56.90;;;1.20;97.30;;;;;;4997753;28;20033;-67
2021/03/03 05:19:23;;;;;;;259.48;60.80;;;1.20;97.20;;;;;;4991432;28;20495;-67
2021/03/03 05:21:48;;;;;;;233.60;53.92;;;1.10;97.10;;;;;;4994652;28;20030;-68
2021/03/03 05:24:14;;;;;;;251.02;54.78;;;1.10;97.00;;;;;;4994256;28;20490;-67
2021/03/03 05:26:39;;;;;;;248.32;55.33;;;1.10;96.90;;;;;;5000598;28;20041;-67
2021/03/03 05:29:05;;;;;;;226.68;51.95;;;1.30;97.00;;;;;;5005545;28;20033;-67
2021/03/03 05:31:31;;;;;;;228.23;51.35;;;1.40;97.10;;;;;;4999863;28;20035;-66
2021/03/03 05:33:56;;;;;;;233.55;50.88;;;1.30;96.90;;;;;;5001833;28;20398;-66
2021/03/03 05:36:22;;;;;;;203.60;49.70;;;1.30;96.70;;;;;;4997166;28;20034;-66
2021/03/03 05:38:47;;;;;;;204.25;48.78;;;1.30;96.80;;;;;;4996084;28;20533;-67
2021/03/03 05:41:13;;;;;;;199.82;47.78;;;1.30;96.80;;;;;;4996080;28;20034;-68
2021/03/03 05:43:39;;;;;;;203.20;46.63;;;1.30;96.70;;;;;;4995009;28;20033;-66
2021/03/03 05:46:05;;;;;;;206.05;48.25;;;1.20;96.60;;;;;;4996668;28;20034;-66
2021/03/03 05:48:36;;;;;;;201.40;49.47;;;1.30;96.60;;;;;;4996771;28;20487;-67
2021/03/03 05:51:04;;;;;;;200.55;46.13;;;1.20;96.50;;;;;;5004333;28;20041;-66
2021/03/03 05:53:31;;;;;;;195.60;45.28;;;1.20;96.50;;;;;;5002144;28;20041;-67
2021/03/03 05:55:59;;;;;;;188.35;45.75;;;1.20;96.60;;;;;;4999446;28;20030;-66
2021/03/03 05:58:27;;;;;;;195.77;47.72;;;1.10;96.50;;;;;;4993664;28;20062;-66
2021/03/03 06:00:55;;;;;;;210.65;48.00;;;1.20;96.50;;;;;;5001888;28;20041;-67
2021/03/03 06:03:23;;;;;;;183.27;45.75;;;1.30;96.60;;;;;;5004329;28;20061;-67
2021/03/03 06:05:49;;;;;;;202.50;46.22;;;1.10;96.40;;;;;;5004673;28;20482;-66
2021/03/03 06:08:16;;;;;;;193.43;47.00;;;1.00;96.30;;;;;;4996903;28;20038;-68
2021/03/03 06:10:42;;;;;;;173.20;45.60;;;1.30;96.60;;;;;;5021844;28;20069;-67
2021/03/03 06:13:08;;;;;;;187.02;46.00;;;1.20;96.40;;;;;;5003951;28;20022;-66
2021/03/03 06:15:34;;;;;;;186.73;46.03;;;1.10;96.30;;;;;;5006834;28;20054;-66
2021/03/03 06:18:00;;;;;;;188.15;45.33;;;1.00;96.20;;;;;;5007546;28;20022;-67
2021/03/03 06:20:26;;;;;;;166.35;41.45;;;1.00;96.30;;;;;;5005195;28;20048;-66
2021/03/03 06:22:52;;;;;;;197.80;46.47;;;0.90;96.20;;;;;;5006927;28;20414;-68
2021/03/03 06:25:20;;;;;;;184.48;46.08;;;0.90;96.20;;;;;;5003957;28;20061;-66
2021/03/03 06:27:47;;;;;;;185.38;47.05;;;0.80;96.20;;;;;;4998299;28;20037;-67
2021/03/03 06:30:17;;;;;;;198.98;47.38;;;0.90;96.30;;;;;;4999101;28;20612;-67
2021/03/03 06:33:00;;;;;;;205.43;50.80;;;1.00;96.50;;;;;;5001741;28;20057;-66
2021/03/03 06:35:44;;;;;;;215.00;49.58;;;1.10;96.60;;;;;;5004573;28;20034;-67
2021/03/03 06:38:14;;;;;;;195.43;49.22;;;1.10;96.60;;;;;;5001591;28;20034;-65
2021/03/03 06:40:53;;;;;;;220.95;50.80;;;1.10;96.60;;;;;;5005223;28;20041;-66
2021/03/03 06:43:23;;;;;;;206.30;48.25;;;1.20;96.60;;;;;;5001151;28;20708;-67
2021/03/03 06:45:49;;;;;;;197.97;46.47;;;1.20;96.60;;;;;;5000414;28;20026;-66
2021/03/03 06:48:34;;;;;;;195.07;47.83;;;1.30;96.60;;;;;;5006634;28;20038;-66
2021/03/03 06:50:59;;;;;;;192.45;46.53;;;1.60;96.80;;;;;;4993369;28;20407;-68
2021/03/03 06:53:32;;;;;;;182.30;45.55;;;1.70;96.60;;;;;;5000387;28;20092;-66
2021/03/03 06:55:57;;;;;;;182.45;45.83;;;1.70;96.50;;;;;;4996918;28;20093;-66
2021/03/03 06:58:32;;;;;;;184.60;46.08;;;1.70;96.40;;;;;;5016660;28;20121;-66
2021/03/03 07:00:58;;;;;;;198.52;45.58;;;1.80;96.30;;;;;;5007398;28;20034;-68
2021/03/03 07:03:25;;;;;;;172.40;45.30;;;1.90;96.30;;;;;;4996003;28;20524;-66
2021/03/03 07:05:51;;;;;;;159.73;42.53;;;2.00;96.10;;;;;;5004178;28;20044;-68
2021/03/03 07:08:18;;;;;;;179.48;45.17;;;2.20;96.40;;;;;;5000147;28;20370;-66
2021/03/03 07:10:43;;;;;;;163.70;43.80;;;2.30;96.00;;;;;;5001574;28;20039;-67
2021/03/03 07:13:09;;;;;;;154.35;41.78;;;2.40;95.90;;;;;;5003614;28;20028;-67
2021/03/03 07:15:34;;;;;;;168.85;44.95;;;2.70;95.90;;;;;;4999063;28;20027;-67
2021/03/03 07:18:00;;;;;;;130.57;39.83;;;2.90;95.50;;;;;;5001366;28;20151;-66
2021/03/03 07:20:26;;;;;;;124.13;38.58;;;3.00;95.00;;;;;;5003219;28;20044;-67
2021/03/03 07:22:53;;;;;;;116.22;36.50;;;3.10;94.30;;;;;;4998983;28;20426;-67
2021/03/03 07:25:20;;;;;;;104.63;33.20;;;3.30;93.70;;;;;;5001730;28;20486;-67
2021/03/03 07:27:49;;;;;;;92.25;31.27;;;3.30;93.40;;;;;;5002073;28;20113;-68
2021/03/03 07:30:16;;;;;;;91.03;31.08;;;3.50;93.00;;;;;;5008145;28;20104;-66
2021/03/03 07:32:42;;;;;;;90.25;30.30;;;3.50;92.60;;;;;;4998014;28;20022;-67
2021/03/03 07:35:10;;;;;;;111.05;33.83;;;3.70;92.40;;;;;;5006284;28;20029;-69
2021/03/03 07:37:38;;;;;;;71.50;27.65;;;3.80;92.40;;;;;;5005215;28;20048;-68
2021/03/03 07:40:09;;;;;;;79.50;28.67;;;4.00;92.50;;;;;;5003476;28;20109;-69
2021/03/03 07:42:37;;;;;;;67.07;25.92;;;4.20;92.00;;;;;;5000160;28;20221;-68
2021/03/03 07:45:09;;;;;;;59.65;24.40;;;4.40;91.60;;;;;;5005712;28;20033;-67
2021/03/03 07:47:36;;;;;;;62.60;26.20;;;4.60;89.70;;;;;;4995047;28;20406;-68
2021/03/03 07:50:29;;;;;;;50.22;23.42;;;4.70;90.70;;;;;;5007881;28;20322;-67
2021/03/03 07:52:55;;;;;;;51.35;24.42;;;4.80;89.10;;;;;;4991893;28;20069;-67
2021/03/03 07:55:22;;;;;;;43.42;20.77;;;4.90;90.30;;;;;;5000393;28;20026;-68
2021/03/03 07:57:50;;;;;;;41.05;20.67;;;5.00;89.50;;;;;;4997094;28;20505;-66
2021/03/03 08:00:25;;;;;;;38.40;19.73;;;5.10;89.00;;;;;;5007665;28;20022;-66
2021/03/03 08:02:55;;;;;;;35.17;18.70;;;5.20;88.00;;;;;;5000529;28;20498;-67
2021/03/03 08:05:39;;;;;;;31.70;17.38;;;5.40;88.20;;;;;;4997285;28;20475;-68
2021/03/03 08:08:13;;;;;;;28.95;16.23;;;5.60;86.40;;;;;;4995288;28;20117;-66
2021/03/03 08:10:42;;;;;;;30.73;17.13;;;5.80;86.10;;;;;;4998427;28;20037;-66
2021/03/03 08:13:30;;;;;;;29.50;15.38;;;6.10;87.30;;;;;;4996780;28;20048;-67
2021/03/03 08:16:01;;;;;;;31.50;14.95;;;6.30;85.90;;;;;;4997600;28;20030;-69
2021/03/03 08:18:30;;;;;;;26.52;15.93;;;6.20;83.90;;;;;;4994155;28;20057;-66
2021/03/03 08:21:07;;;;;;;23.52;13.88;;;6.40;83.40;;;;;;4982936;28;20501;-67
2021/03/03 08:23:33;;;;;;;23.30;14.18;;;6.40;82.80;;;;;;4996270;28;20108;-67
2021/03/03 08:26:03;;;;;;;22.17;14.20;;;6.40;82.20;;;;;;5000363;28;20022;-68
2021/03/03 08:28:31;;;;;;;27.73;13.65;;;6.40;82.10;;;;;;4975802;28;20030;-69
2021/03/03 08:31:11;;;;;;;26.55;13.98;;;6.60;82.70;;;;;;4974644;28;20049;-68
2021/03/03 08:33:49;;;;;;;23.45;14.05;;;6.60;80.80;;;;;;4991830;28;20030;-69
2021/03/03 08:36:17;;;;;;;25.83;14.23;;;6.80;81.70;;;;;;4996786;28;20045;-68
2021/03/03 08:38:47;;;;;;;26.27;15.15;;;7.00;80.70;;;;;;4991386;28;20037;-66
2021/03/03 08:41:15;;;;;;;20.63;13.48;;;7.60;82.40;;;;;;4997787;28;20446;-66
2021/03/03 08:44:11;;;;;;;20.10;12.45;;;8.00;79.60;;;;;;4998025;28;20041;-67
2021/03/03 08:46:42;;;;;;;22.77;13.32;;;8.00;77.80;;;;;;4999005;28;20022;-67
2021/03/03 08:49:23;;;;;;;19.83;11.98;;;8.20;79.80;;;;;;4997202;28;20045;-69
2021/03/03 08:51:49;;;;;;;21.58;12.75;;;8.60;76.70;;;;;;4998738;28;20034;-67
2021/03/03 08:54:23;;;;;;;20.10;12.05;;;8.90;74.80;;;;;;5000429;28;20042;-67
2021/03/03 08:56:53;;;;;;;21.73;12.18;;;9.00;73.80;;;;;;4996259;28;20485;-68
2021/03/03 08:59:39;;;;;;;18.38;11.32;;;9.00;71.10;;;;;;4996513;28;20526;-69
2021/03/03 09:02:15;;;;;;;22.25;12.07;;;9.40;72.40;;;;;;4994654;28;20239;-68
2021/03/03 09:04:43;;;;;;;22.05;11.25;;;9.40;71.30;;;;;;5001051;28;20033;-67
2021/03/03 09:07:13;;;;;;;18.02;10.82;;;9.70;70.70;;;;;;4998168;28;20168;-69
2021/03/03 09:09:49;;;;;;;16.90;10.20;;;10.00;70.00;;;;;;4999094;28;20042;-67
2021/03/03 09:12:20;;;;;;;17.55;10.48;;;9.70;68.30;;;;;;4989076;28;20048;-67
2021/03/03 09:14:46;;;;;;;;;;;9.60;69.90;;;;;;5002717;28;20037;-68
2021/03/03 09:17:14;;;;;;;20.95;10.85;;;9.80;71.00;;;;;;4999666;28;19925;-68
2021/03/03 09:19:41;;;;;;;18.45;10.38;;;9.90;69.90;;;;;;5000556;28;20088;-68
2021/03/03 09:22:21;;;;;;;20.67;11.23;;;10.00;70.40;;;;;;5001013;28;20038;-69
2021/03/03 09:24:47;;;;;;;21.45;10.50;;;9.90;69.60;;;;;;5003163;28;20042;-70
2021/03/03 09:27:13;;;;;;;20.55;11.75;;;9.80;69.80;;;;;;4997478;28;20084;-67
2021/03/03 09:29:40;;;;;;;19.17;11.35;;;9.80;69.30;;;;;;5002368;28;20577;-68
2021/03/03 09:32:07;;;;;;;22.27;12.27;;;10.00;69.40;;;;;;5000465;28;20128;-66
2021/03/03 09:34:35;;;;;;;20.55;11.18;;;9.70;69.30;;;;;;5000243;28;20053;-68
2021/03/03 09:37:03;;;;;;;22.73;11.85;;;9.70;69.00;;;;;;4999610;28;20517;-68
2021/03/03 09:39:29;;;;;;;19.08;10.93;;;9.80;68.70;;;;;;5000845;28;20402;-66
2021/03/03 09:42:04;;;;;;;20.40;11.35;;;9.80;68.70;;;;;;5002232;28;20057;-69
2021/03/03 09:44:48;;;;;;;17.77;11.20;;;10.10;68.80;;;;;;5001545;28;20430;-68
2021/03/03 09:47:32;;;;;;;19.95;11.15;;;10.20;68.00;;;;;;4998985;28;20619;-67
2021/03/03 09:49:59;;;;;;;23.27;11.35;;;10.50;67.70;;;;;;5000973;28;20794;-66
2021/03/03 09:52:39;;;;;;;19.77;10.93;;;10.60;66.80;;;;;;4996846;28;20401;-68
2021/03/03 09:55:08;;;;;;;19.27;11.07;;;10.40;66.80;;;;;;5000306;28;20030;-66
2021/03/03 09:57:34;;;;;;;22.27;11.18;;;10.60;67.30;;;;;;4996881;28;20269;-66
2021/03/03 10:00:00;;;;;;;19.40;11.48;;;10.80;67.70;;;;;;4984614;28;20068;-66
2021/03/03 10:02:28;;;;;;;21.60;10.75;;;10.80;66.90;;;;;;5002092;28;20565;-66
2021/03/03 10:04:55;;;;;;;17.95;10.27;;;10.80;66.20;;;;;;4977995;28;20235;-66
2021/03/03 10:07:23;;;;;;;19.38;11.88;;;10.70;65.70;;;;;;4996758;28;20036;-67
2021/03/03 10:09:57;;;;;;;22.10;11.85;;;10.80;66.10;;;;;;4998323;28;20758;-67
2021/03/03 10:12:27;;;;;;;21.40;11.45;;;10.70;65.80;;;;;;5001838;28;20033;-68
2021/03/03 10:14:54;;;;;;;20.27;11.57;;;10.90;65.40;;;;;;5002049;28;20024;-69
2021/03/03 10:17:41;;;;;;;21.42;11.48;;;11.10;65.20;;;;;;4999207;28;20280;-66
2021/03/03 10:20:32;;;;;;;18.33;11.77;;;11.10;65.60;;;;;;5000072;28;20044;-66
2021/03/03 10:23:03;;;;;;;22.65;11.43;;;10.90;65.30;;;;;;5002183;28;20026;-69
2021/03/03 10:25:42;;;;;;;19.02;10.73;;;11.20;65.40;;;;;;5000732;28;20030;-67
2021/03/03 10:28:14;;;;;;;20.80;11.77;;;11.40;65.00;;;;;;4994798;28;20076;-66
2021/03/03 10:30:43;;;;;;;19.23;11.73;;;11.50;65.30;;;;;;5001331;28;20030;-68
2021/03/03 10:33:11;;;;;;;17.98;10.65;;;11.90;63.70;;;;;;4981215;28;20503;-67
2021/03/03 10:35:48;;;;;;;20.60;11.15;;;12.10;63.80;;;;;;4999414;28;20113;-66
2021/03/03 10:38:16;;;;;;;20.55;11.27;;;12.10;62.60;;;;;;4999350;28;20446;-67
2021/03/03 10:40:43;;;;;;;18.05;10.95;;;12.00;63.10;;;;;;4999922;28;20045;-67
2021/03/03 10:43:14;;;;;;;19.08;11.40;;;11.90;62.30;;;;;;5000522;28;20422;-67
2021/03/03 10:45:41;;;;;;;19.02;11.38;;;12.00;62.00;;;;;;4999805;28;20037;-66
2021/03/03 10:48:07;;;;;;;23.27;11.63;;;12.00;62.40;;;;;;4997776;28;20137;-67
2021/03/03 10:50:48;;;;;;;24.23;12.18;;;12.20;62.20;;;;;;5001203;28;20406;-66
2021/03/03 10:53:13;;;;;;;19.08;10.98;;;12.40;61.80;;;;;;5001494;28;20034;-67
2021/03/03 10:55:41;;;;;;;20.70;11.43;;;12.20;61.50;;;;;;5001544;28;20486;-67
2021/03/03 10:58:12;;;;;;;21.52;11.57;;;12.50;60.90;;;;;;4996802;28;20053;-66
2021/03/03 11:00:57;;;;;;;19.67;11.80;;;12.40;61.00;;;;;;5000080;28;20073;-66
2021/03/03 11:03:24;;;;;;;21.20;11.77;;;12.60;60.70;;;;;;4999809;28;20029;-66
2021/03/03 11:05:54;;;;;;;20.23;11.98;;;12.80;61.40;;;;;;5000454;28;20033;-65
2021/03/03 11:08:20;;;;;;;22.75;11.80;;;12.50;61.00;;;;;;4997322;28;20470;-66
2021/03/03 11:10:47;;;;;;;20.42;11.45;;;12.20;61.20;;;;;;4999658;28;20030;-69
2021/03/03 11:13:13;;;;;;;22.38;12.32;;;12.00;62.60;;;;;;5000444;28;20072;-67
2021/03/03 11:15:40;;;;;;;20.67;11.85;;;12.00;62.80;;;;;;5001170;28;20645;-68
2021/03/03 11:18:07;;;;;;;20.60;11.55;;;12.00;63.20;;;;;;4996339;28;20445;-66
2021/03/03 11:20:33;;;;;;;20.90;11.60;;;12.00;63.20;;;;;;5001619;28;20062;-68
2021/03/03 11:22:59;;;;;;;23.58;11.40;;;12.30;62.70;;;;;;4995762;28;20108;-68
2021/03/03 11:25:24;;;;;;;20.83;11.13;;;12.50;62.70;;;;;;5001817;28;20022;-66
2021/03/03 11:27:50;;;;;;;20.83;11.95;;;12.60;61.00;;;;;;4996604;28;20484;-67
2021/03/03 11:30:16;;;;;;;18.63;11.63;;;12.80;60.50;;;;;;4999245;28;20529;-68
2021/03/03 11:32:41;;;;;;;22.40;11.48;;;13.10;60.60;;;;;;4997424;28;20034;-68
2021/03/03 11:35:07;;;;;;;19.33;11.48;;;13.50;58.90;;;;;;5000677;28;20034;-65
2021/03/03 11:37:33;;;;;;;24.13;11.52;;;13.30;58.20;;;;;;4994443;28;20160;-66
2021/03/03 11:39:58;;;;;;;20.85;11.65;;;13.60;57.40;;;;;;4991404;28;20018;-69
2021/03/03 11:42:24;;;;;;;28.83;12.32;;;13.90;56.60;;;;;;4995386;28;20034;-67
2021/03/03 11:44:49;;;;;;;20.67;12.00;;;14.30;55.60;;;;;;5000736;28;20585;-68
2021/03/03 11:47:15;;;;;;;23.58;12.15;;;14.50;53.60;;;;;;4994033;28;20041;-68
2021/03/03 11:49:40;;;;;;;28.13;11.95;;;14.20;53.50;;;;;;4999787;28;20040;-67
2021/03/03 11:52:06;;;;;;;25.45;12.68;;;14.20;55.10;;;;;;4997417;28;20052;-66
2021/03/03 11:54:32;;;;;;;20.27;12.07;;;14.10;54.60;;;;;;4999608;28;20041;-67
2021/03/03 11:56:57;;;;;;;22.02;12.45;;;14.20;53.30;;;;;;4996007;28;20107;-69
2021/03/03 11:59:23;;;;;;;23.33;12.10;;;14.40;54.20;;;;;;4999477;28;20056;-67
2021/03/03 12:01:52;;;;;;;28.90;12.18;;;14.80;53.00;;;;;;4996733;28;20034;-67
2021/03/03 12:04:17;;;;;;;21.17;11.98;;;15.00;51.50;;;;;;4985664;28;20033;-69
2021/03/03 12:06:43;;;;;;;23.27;12.45;;;14.70;53.60;;;;;;4986604;28;20087;-67
2021/03/03 12:09:09;;;;;;;24.05;11.60;;;14.50;54.20;;;;;;4992204;28;20243;-69
2021/03/03 12:11:35;;;;;;;22.50;12.15;;;14.40;54.50;;;;;;4976647;28;20040;-68
2021/03/03 12:14:01;;;;;;;22.38;12.40;;;14.30;54.50;;;;;;4998752;28;20026;-68
2021/03/03 12:16:26;;;;;;;25.30;13.40;;;14.50;54.30;;;;;;4999448;28;20205;-67
2021/03/03 12:18:52;;;;;;;28.00;13.35;;;14.60;53.10;;;;;;4996897;28;20513;-67
2021/03/03 12:21:18;;;;;;;24.02;13.18;;;14.80;52.50;;;;;;4993812;28;20034;-67
2021/03/03 12:23:44;;;;;;;29.02;14.57;;;14.80;52.30;;;;;;4998446;28;20104;-67
2021/03/03 12:26:09;;;;;;;24.70;13.20;;;14.90;52.70;;;;;;4998356;28;20049;-69
2021/03/03 12:28:36;;;;;;;27.25;13.57;;;14.90;51.80;;;;;;4994021;28;20038;-67
2021/03/03 12:31:02;;;;;;;27.45;13.60;;;15.00;52.60;;;;;;5000030;28;20033;-66
2021/03/03 12:33:27;;;;;;;24.77;12.95;;;15.30;52.60;;;;;;4993596;28;20037;-67
2021/03/03 12:35:53;;;;;;;26.92;14.30;;;15.90;51.40;;;;;;4997709;28;20073;-68
2021/03/03 12:38:18;;;;;;;27.05;14.75;;;15.90;50.50;;;;;;5001485;28;20185;-67
2021/03/03 12:40:44;;;;;;;26.42;15.40;;;15.40;50.30;;;;;;5009499;28;20497;-66